sensor_id;sensor_type;location;lat;lon;timestamp;temperature;humidity
949;DHT22;461;51.436;7.312;2023-12-28T03:24:13;10.90;99.90
949;DHT22;461;51.436;7.312;2023-12-28T03:26:48;11.70;99.90
949;DHT22;461;51.436;7.312;2023-12-28T03:32:00;11.70;99.90
949;DHT22;461;51.436;7.312;2023-12-28T03:34:36;11.80;99.90
949;DHT22;461;51.436;7.312;2023-12-28T03:37:19;11.70;99.90
949;DHT22;461;51.436;7.312;2023-12-28T03:45:44;11.90;99.90
949;DHT22;461;51.436;7.312;2023-12-28T03:48:14;11.90;99.90
949;DHT22;461;51.436;7.312;2023-12-28T03:50:58;11.90;99.90
949;DHT22;461;51.436;7.312;2023-12-28T03:53:27;11.90;99.90
949;DHT22;461;51.436;7.312;2023-12-28T03:56:02;12.00;99.90
949;DHT22;461;51.436;7.312;2023-12-28T03:58:41;12.00;99.90
949;DHT22;461;51.436;7.312;2023-12-28T04:01:20;11.80;99.90
949;DHT22;461;51.436;7.312;2023-12-28T04:04:07;11.80;99.90
949;DHT22;461;51.436;7.312;2023-12-28T04:07:15;11.80;99.90
949;DHT22;461;51.436;7.312;2023-12-28T04:09:53;11.90;99.90
949;DHT22;461;51.436;7.312;2023-12-28T04:12:33;11.80;99.90
949;DHT22;461;51.436;7.312;2023-12-28T04:15:27;11.90;99.90
949;DHT22;461;51.436;7.312;2023-12-28T04:18:06;12.00;99.90
949;DHT22;461;51.436;7.312;2023-12-28T04:20:42;12.00;99.90
949;DHT22;461;51.436;7.312;2023-12-28T04:23:15;12.00;99.90
949;DHT22;461;51.436;7.312;2023-12-28T04:25:46;11.90;99.90
949;DHT22;461;51.436;7.312;2023-12-28T04:28:16;11.80;99.90
949;DHT22;461;51.436;7.312;2023-12-28T04:30:51;11.80;99.90
949;DHT22;461;51.436;7.312;2023-12-28T04:33:26;11.80;99.90
949;DHT22;461;51.436;7.312;2023-12-28T04:35:52;11.80;99.90
949;DHT22;461;51.436;7.312;2023-12-28T04:38:21;11.80;99.90
949;DHT22;461;51.436;7.312;2023-12-28T04:40:50;11.80;99.90
949;DHT22;461;51.436;7.312;2023-12-28T04:43:19;11.90;99.90
949;DHT22;461;51.436;7.312;2023-12-28T04:45:50;11.80;99.90
949;DHT22;461;51.436;7.312;2023-12-28T04:48:47;11.80;99.90
949;DHT22;461;51.436;7.312;2023-12-28T04:51:24;12.10;99.90
949;DHT22;461;51.436;7.312;2023-12-28T04:54:35;12.10;99.90
949;DHT22;461;51.436;7.312;2023-12-28T04:57:17;12.00;99.90
949;DHT22;461;51.436;7.312;2023-12-28T05:00:19;12.00;99.90
949;DHT22;461;51.436;7.312;2023-12-28T05:03:28;12.10;99.90
949;DHT22;461;51.436;7.312;2023-12-28T05:06:14;12.10;99.90
949;DHT22;461;51.436;7.312;2023-12-28T05:08:53;12.20;99.90
949;DHT22;461;51.436;7.312;2023-12-28T05:11:46;12.30;99.90
949;DHT22;461;51.436;7.312;2023-12-28T05:14:43;12.30;99.90
949;DHT22;461;51.436;7.312;2023-12-28T05:17:29;12.30;99.90
949;DHT22;461;51.436;7.312;2023-12-28T05:20:27;12.40;99.90
949;DHT22;461;51.436;7.312;2023-12-28T05:23:31;12.40;99.90
949;DHT22;461;51.436;7.312;2023-12-28T05:26:10;12.40;99.90
949;DHT22;461;51.436;7.312;2023-12-28T05:28:43;12.30;99.90
949;DHT22;461;51.436;7.312;2023-12-28T05:31:12;12.40;99.90
949;DHT22;461;51.436;7.312;2023-12-28T05:38:45;12.40;99.90
949;DHT22;461;51.436;7.312;2023-12-28T05:49:29;12.40;99.90
949;DHT22;461;51.436;7.312;2023-12-28T05:52:06;12.40;99.90
949;DHT22;461;51.436;7.312;2023-12-28T05:54:38;12.30;99.90
949;DHT22;461;51.436;7.312;2023-12-28T05:57:11;12.30;99.90
949;DHT22;461;51.436;7.312;2023-12-28T05:59:48;12.40;99.90
949;DHT22;461;51.436;7.312;2023-12-28T06:02:26;12.30;99.90
949;DHT22;461;51.436;7.312;2023-12-28T06:05:30;12.50;99.90
949;DHT22;461;51.436;7.312;2023-12-28T06:08:09;12.40;99.90
949;DHT22;461;51.436;7.312;2023-12-28T06:13:27;12.40;99.90
949;DHT22;461;51.436;7.312;2023-12-28T06:19:12;12.30;99.90
949;DHT22;461;51.436;7.312;2023-12-28T06:21:55;12.40;99.90
949;DHT22;461;51.436;7.312;2023-12-28T06:27:20;12.30;99.90
949;DHT22;461;51.436;7.312;2023-12-28T06:37:16;12.30;99.90
949;DHT22;461;51.436;7.312;2023-12-28T06:39:51;12.30;99.90
949;DHT22;461;51.436;7.312;2023-12-28T06:47:47;12.30;99.90
949;DHT22;461;51.436;7.312;2023-12-28T06:50:24;12.20;99.90
949;DHT22;461;51.436;7.312;2023-12-28T06:53:14;12.20;99.90
949;DHT22;461;51.436;7.312;2023-12-28T06:55:51;12.30;99.90
949;DHT22;461;51.436;7.312;2023-12-28T06:58:24;12.20;99.90
949;DHT22;461;51.436;7.312;2023-12-28T07:00:53;12.20;99.90
949;DHT22;461;51.436;7.312;2023-12-28T07:03:23;12.10;99.90
949;DHT22;461;51.436;7.312;2023-12-28T07:06:01;12.00;99.90
949;DHT22;461;51.436;7.312;2023-12-28T07:08:34;12.00;99.90
949;DHT22;461;51.436;7.312;2023-12-28T07:13:41;11.90;99.90
